SLTA weather

Taquipirenda Airport
Cordillera, Santa Cruz Department, Bolivia

Public forecast

Using degrees Celsius for public forecast. Weather courtesy of forecast.io.

METAR (pilot weather report)

Closest report is Camiri Airport, 29.8 nm (55.2 km) NW. Retrieved 2019/03/26 17:00 UTC (56 minutes ago):

SLCA 261700Z 00000KT 9999 BKN027 OVC070 22/19 Q1021

TAF (pilot weather forecast)

Forecast is more than 12 hours old.

Closest forecast is Yacuiba Airport, 101.3 nm (187.6 km) SSW. Retrieved 2019/03/15 00:15 UTC (12 days ago):

TAF SLYA 152200Z 1600/1624 00000KT 5000 RA SCT008 BKN015 OVC070 TX27/ 1619Z TN17/1610Z BECMG 1604/1606 9999 NSW BECMG 1615/1617 21010KT SCT017 BKN070